Kerens, Texas
Current Conditions -  °F | °C
As of 6:53 PM on Wednesday 26 Nov 2014 (Local Time) from KCRS Reporting Station
Clear Clear  
Wind Chill: 56°   Ceiling: Unl
Heat Index: 56°   Visibility: 10mi
Dew Point: 34°   Wind: 3mph
Humidity: 44%   Direction: 340°NNW
Pressure: 30.27"   Gusts: NA
Location:  32.13°N, 96.23°W
Report Text: KCRS 270053Z AUTO 34003KT 10SM CLR 13/01 A3027 RMK AO2 SLP251 T01330011
Loading
Personal Weather Stations






























Interactive Weather Map New forecast layout! Learn more

10-Day Weather Forecast

Advertisements
Track Severe Weather on mobile